Time;durP1;ratioP1;P1;durP2;ratioP2;P2;SDS_P1;SDS_P2;PMS_P1;PMS_P2;Temp;Humidity;BMP_temperature;BMP_pressure;BME280_temperature;BME280_humidity;BME280_pressure;Samples;Min_cycle;Max_cycle;Signal;HPM_P1;HPM_P2
2023/10/02 00:00:19;;;;;;;13.60;6.82;;;;;;;12.54;48.64;96183.34;4902734;29;20066;-74
2023/10/02 00:02:45;;;;;;;12.80;7.40;;;;;;;12.61;48.04;96186.19;4920459;29;20066;-75
2023/10/02 00:05:11;;;;;;;13.77;7.07;;;;;;;12.65;48.00;96188.28;4885474;29;20051;-75
2023/10/02 00:07:38;;;;;;;14.10;7.18;;;;;;;12.65;48.27;96193.63;4902314;29;20130;-74
2023/10/02 00:10:04;;;;;;;14.48;7.55;;;;;;;12.64;48.28;96186.63;4903980;29;20062;-75
2023/10/02 00:12:32;;;;;;;15.05;7.57;;;;;;;12.61;48.48;96184.31;4907199;29;20042;-74
2023/10/02 00:14:58;;;;;;;13.32;6.97;;;;;;;12.65;48.06;96185.63;4901669;29;20039;-74
2023/10/02 00:17:24;;;;;;;14.57;7.38;;;;;;;12.60;48.18;96188.00;4901646;29;20034;-74
2023/10/02 00:19:57;;;;;;;13.55;7.30;;;;;;;12.56;48.65;96191.19;4923776;29;20051;-74
2023/10/02 00:25:17;;;;;;;13.25;7.15;;;;;;;12.52;48.04;96188.88;4889641;29;20432;-74
2023/10/02 00:27:46;;;;;;;14.00;6.45;;;;;;;12.44;47.81;96191.59;4908525;29;20497;-74
2023/10/02 00:30:13;;;;;;;13.23;6.97;;;;;;;12.42;48.50;96194.44;4887269;29;20169;-75
2023/10/02 00:32:41;;;;;;;12.03;6.80;;;;;;;12.39;48.04;96194.81;4902204;29;20449;-74
2023/10/02 00:35:10;;;;;;;14.95;7.45;;;;;;;12.35;48.21;96193.50;4920128;29;20070;-74
2023/10/02 00:37:45;;;;;;;14.13;6.90;;;;;;;12.36;47.97;96197.81;4920259;29;20128;-74
2023/10/02 00:40:30;;;;;;;13.32;6.97;;;;;;;12.27;48.26;96197.03;4909014;29;20670;-74
2023/10/02 00:42:59;;;;;;;11.85;6.65;;;;;;;12.30;48.41;96192.38;4919774;29;20088;-74
2023/10/02 00:45:38;;;;;;;12.65;6.82;;;;;;;12.27;48.64;96185.50;4926668;29;20805;-74
2023/10/02 00:50:54;;;;;;;12.00;6.70;;;;;;;12.18;48.75;96191.91;4913154;29;20134;-77
2023/10/02 00:53:24;;;;;;;12.55;7.15;;;;;;;12.21;49.09;96186.22;4931516;29;20546;-76
2023/10/02 00:55:53;;;;;;;14.27;7.60;;;;;;;12.20;48.98;96179.22;4916454;29;20362;-75
2023/10/02 00:58:19;;;;;;;13.15;7.22;;;;;;;12.20;48.89;96181.91;4915178;29;20176;-75
2023/10/02 01:00:50;;;;;;;13.20;6.85;;;;;;;12.23;49.43;96184.19;4914139;29;20090;-76
2023/10/02 01:03:16;;;;;;;13.38;7.20;;;;;;;12.25;49.48;96180.38;4910759;29;20065;-75
2023/10/02 01:05:42;;;;;;;13.23;7.30;;;;;;;12.31;49.14;96176.16;4919115;29;20253;-78
2023/10/02 01:08:23;;;;;;;15.35;7.50;;;;;;;12.33;48.92;96174.16;4935669;29;20047;-77
2023/10/02 01:11:03;;;;;;;14.45;7.18;;;;;;;12.35;49.18;96180.16;4937370;29;20080;-75
2023/10/02 01:13:29;;;;;;;13.90;6.97;;;;;;;12.33;48.95;96168.81;4918843;29;20046;-77
2023/10/02 01:15:59;;;;;;;11.48;6.80;;;;;;;12.24;49.26;96177.88;4935361;29;20040;-75
2023/10/02 01:18:27;;;;;;;12.82;6.82;;;;;;;12.26;49.41;96170.50;4925277;29;20807;-76
2023/10/02 01:20:54;;;;;;;12.60;6.95;;;;;;;12.22;48.36;96174.53;4933322;29;20086;-77
2023/10/02 01:23:25;;;;;;;13.15;7.25;;;;;;;12.14;48.79;96176.22;4888735;29;20165;-77
2023/10/02 01:25:50;;;;;;;14.00;6.80;;;;;;;12.19;48.94;96177.53;4924570;29;20110;-74
2023/10/02 01:28:20;;;;;;;12.05;6.40;;;;;;;12.22;48.83;96169.19;4903734;29;20069;-77
2023/10/02 01:30:47;;;;;;;13.45;6.78;;;;;;;12.22;49.22;96171.88;4913676;29;20100;-76
2023/10/02 01:33:22;;;;;;;13.25;6.90;;;;;;;12.20;49.09;96163.22;4914692;29;20121;-75
2023/10/02 01:35:56;;;;;;;12.35;6.57;;;;;;;12.17;48.30;96167.03;4922489;29;20063;-77
2023/10/02 01:38:29;;;;;;;12.38;6.68;;;;;;;12.07;48.16;96164.59;4933235;29;20443;-78
2023/10/02 01:41:02;;;;;;;11.82;6.55;;;;;;;11.98;48.34;96165.63;4920281;29;20062;-76
2023/10/02 01:43:28;;;;;;;12.75;6.82;;;;;;;11.90;48.60;96161.97;4917042;29;20175;-75
2023/10/02 01:45:57;;;;;;;16.13;6.03;;;;;;;11.91;48.75;96165.47;4916607;29;20594;-76
2023/10/02 01:48:38;;;;;;;11.98;6.32;;;;;;;11.84;49.42;96160.00;4932681;29;20535;-77
2023/10/02 01:51:15;;;;;;;12.75;6.65;;;;;;;11.75;49.35;96151.19;4927735;29;20070;-77
2023/10/02 01:53:42;;;;;;;11.73;6.38;;;;;;;11.75;49.10;96158.34;4933599;29;20065;-76
2023/10/02 01:56:11;;;;;;;13.20;6.53;;;;;;;11.77;48.88;96159.03;4927175;28;20144;-76
2023/10/02 01:58:40;;;;;;;13.93;6.25;;;;;;;11.75;49.25;96161.88;4933827;29;20075;-77
2023/10/02 02:01:09;;;;;;;12.27;6.50;;;;;;;11.75;49.55;96158.34;4928411;29;20107;-74
2023/10/02 02:03:46;;;;;;;14.38;6.65;;;;;;;11.83;49.42;96166.31;4916255;29;20670;-72
2023/10/02 02:06:16;;;;;;;12.73;6.65;;;;;;;11.84;49.50;96160.00;4916073;29;20129;-75
2023/10/02 02:08:43;;;;;;;12.70;6.57;;;;;;;11.84;49.09;96160.00;4921701;29;20518;-75
2023/10/02 02:11:16;;;;;;;12.02;6.03;;;;;;;11.82;49.37;96166.50;4916615;29;20548;-73
2023/10/02 02:13:48;;;;;;;13.60;6.47;;;;;;;11.79;48.87;96157.00;4914152;29;20560;-76
2023/10/02 02:16:22;;;;;;;12.98;6.53;;;;;;;11.78;49.57;96163.34;4914164;29;20055;-73
2023/10/02 02:18:53;;;;;;;11.95;6.13;;;;;;;11.81;49.61;96165.69;4930495;29;20079;-73
2023/10/02 02:21:19;;;;;;;10.98;5.63;;;;;;;11.84;49.36;96160.00;4928707;29;20082;-74
2023/10/02 02:23:45;;;;;;;10.65;5.95;;;;;;;11.85;49.68;96161.66;4912488;29;20055;-75
2023/10/02 02:26:21;;;;;;;12.82;6.53;;;;;;;11.87;49.88;96154.31;4893944;29;20544;-73
2023/10/02 02:28:51;;;;;;;10.50;6.00;;;;;;;11.86;50.03;96152.66;4936254;29;20055;-74
2023/10/02 02:31:29;;;;;;;13.85;7.03;;;;;;;11.92;49.91;96155.63;4932326;28;20705;-74
2023/10/02 02:34:14;;;;;;;13.00;6.55;;;;;;;11.93;49.63;96157.31;4922488;29;20201;-76
2023/10/02 02:36:41;;;;;;;11.68;6.35;;;;;;;11.97;49.79;96147.94;4933327;29;20078;-75
2023/10/02 02:39:15;;;;;;;13.95;6.25;;;;;;;12.00;49.54;96152.94;4919987;29;20074;-74
2023/10/02 02:41:48;;;;;;;11.52;6.22;;;;;;;12.02;49.55;96153.59;4935511;29;20081;-74
2023/10/02 02:47:07;;;;;;;13.70;7.00;;;;;;;11.89;49.12;96149.63;4933033;29;20204;-75
2023/10/02 02:49:33;;;;;;;12.90;6.45;;;;;;;11.93;49.30;96152.78;4934582;29;20446;-73
2023/10/02 02:51:58;;;;;;;13.40;6.72;;;;;;;11.91;49.27;96154.81;4915737;29;20538;-74
2023/10/02 02:54:25;;;;;;;11.13;6.00;;;;;;;11.90;48.94;96147.81;4932941;29;20076;-74
2023/10/02 02:57:00;;;;;;;12.95;6.30;;;;;;;11.87;49.35;96148.97;4912162;29;20609;-76
2023/10/02 02:59:27;;;;;;;10.20;5.72;;;;;;;11.91;48.72;96146.81;4930171;29;20066;-74
2023/10/02 03:02:08;;;;;;;11.07;6.30;;;;;;;11.88;48.73;96150.66;4910027;29;20075;-75
2023/10/02 03:04:38;;;;;;;10.13;5.53;;;;;;;11.87;48.77;96148.16;4912951;29;20054;-76
2023/10/02 03:07:18;;;;;;;11.15;6.03;;;;;;;11.86;48.13;96146.47;4913275;28;20071;-75
2023/10/02 03:09:44;;;;;;;10.48;6.25;;;;;;;11.89;48.55;96148.78;4933735;29;20150;-75
2023/10/02 03:12:10;;;;;;;11.82;6.40;;;;;;;11.85;48.41;96153.66;4931759;29;20137;-75
2023/10/02 03:14:35;;;;;;;11.07;5.82;;;;;;;11.87;48.83;96148.97;4918925;29;20067;-75
2023/10/02 03:17:28;;;;;;;12.93;5.95;;;;;;;11.83;47.64;96142.31;4932989;29;20516;-74
2023/10/02 03:19:46;;;;;;;11.55;6.13;;;;;;;11.83;48.91;96147.66;4918032;29;20604;-75
2023/10/02 03:22:12;;;;;;;11.52;5.57;;;;;;;11.85;48.85;96143.00;4931583;29;20289;-75
2023/10/02 03:24:39;;;;;;;11.55;6.10;;;;;;;11.86;49.11;96147.31;4918379;29;20052;-74
2023/10/02 03:27:08;;;;;;;13.35;6.60;;;;;;;11.87;48.74;96137.47;4931641;29;20032;-75
2023/10/02 03:29:34;;;;;;;13.13;6.63;;;;;;;11.89;49.04;96138.13;4934062;29;20073;-75
2023/10/02 03:31:59;;;;;;;12.60;6.40;;;;;;;11.94;48.91;96142.94;4911164;29;20046;-75
2023/10/02 03:34:27;;;;;;;10.15;5.70;;;;;;;11.93;48.98;96147.44;4926484;29;20074;-74
2023/10/02 03:36:55;;;;;;;13.57;6.28;;;;;;;11.79;49.13;96149.00;4909396;29;20054;-75
2023/10/02 03:42:12;;;;;;;10.80;5.77;;;;;;;11.80;49.13;96139.19;4929967;29;20074;-74
2023/10/02 03:44:37;;;;;;;13.88;5.78;;;;;;;11.80;49.06;96137.31;4928545;29;20098;-74
2023/10/02 03:47:03;;;;;;;9.77;5.43;;;;;;;11.77;48.74;96143.03;4897280;29;20072;-75
2023/10/02 03:49:28;;;;;;;10.50;5.53;;;;;;;11.75;48.68;96137.88;4926690;29;20063;-74
2023/10/02 03:51:55;;;;;;;10.85;5.80;;;;;;;11.74;48.97;96138.88;4923252;29;20046;-75
2023/10/02 03:54:21;;;;;;;11.50;5.88;;;;;;;11.73;48.73;96139.03;4931156;29;20475;-75
2023/10/02 03:56:50;;;;;;;11.07;6.03;;;;;;;11.72;48.93;96135.53;4920735;29;20079;-74
2023/10/02 03:59:21;;;;;;;11.88;5.75;;;;;;;11.73;49.03;96136.38;4910775;29;20191;-74
2023/10/02 04:01:47;;;;;;;11.05;6.07;;;;;;;11.74;49.17;96130.03;4907416;29;20438;-74
2023/10/02 04:06:42;;;;;;;10.98;6.20;;;;;;;11.75;49.08;96129.84;4911731;29;20417;-75
2023/10/02 04:11:50;;;;;;;12.32;6.18;;;;;;;11.69;49.00;96127.88;4917476;29;20035;-74
2023/10/02 04:14:19;;;;;;;11.80;6.10;;;;;;;11.68;48.97;96126.22;4917745;29;20129;-75
2023/10/02 04:16:48;;;;;;;12.77;6.35;;;;;;;11.68;48.88;96122.72;4911491;29;20083;-74
2023/10/02 04:19:22;;;;;;;10.48;5.82;;;;;;;11.64;49.15;96123.06;4933257;29;20065;-75
2023/10/02 04:21:48;;;;;;;10.68;5.70;;;;;;;11.61;49.35;96123.41;4903438;29;20078;-75
2023/10/02 04:24:14;;;;;;;12.48;5.40;;;;;;;11.61;48.75;96117.25;4935832;29;20046;-74
2023/10/02 04:26:44;;;;;;;12.65;5.82;;;;;;;11.58;48.79;96122.91;4934344;29;20077;-74
2023/10/02 04:32:04;;;;;;;11.23;5.90;;;;;;;11.51;48.56;96114.78;4927065;29;20164;-75
2023/10/02 04:34:31;;;;;;;14.55;6.40;;;;;;;11.47;48.77;96116.97;4920490;29;20079;-73
2023/10/02 04:36:56;;;;;;;10.63;5.70;;;;;;;11.44;48.76;96119.97;4927370;29;20058;-75
2023/10/02 04:42:11;;;;;;;11.35;5.85;;;;;;;11.40;48.87;96126.66;4932144;29;20103;-75
2023/10/02 04:44:58;;;;;;;11.90;5.97;;;;;;;11.38;49.62;96123.31;4914622;29;20062;-75
2023/10/02 04:47:26;;;;;;;12.48;5.95;;;;;;;11.42;49.69;96123.81;4919763;29;20078;-74
2023/10/02 04:52:55;;;;;;;11.02;5.85;;;;;;;11.45;49.48;96118.94;4919821;29;20069;-75
2023/10/02 04:55:24;;;;;;;13.43;6.13;;;;;;;11.48;49.46;96115.09;4922442;29;20076;-75
2023/10/02 04:58:03;;;;;;;12.35;5.85;;;;;;;11.43;49.45;96118.31;4914809;29;20062;-74
2023/10/02 05:00:34;;;;;;;12.25;6.07;;;;;;;11.42;49.56;96113.97;4899260;29;20067;-75
2023/10/02 05:03:24;;;;;;;10.43;5.32;;;;;;;11.38;49.73;96113.47;4939835;29;20074;-75
2023/10/02 05:05:53;;;;;;;10.95;5.70;;;;;;;11.34;50.00;96112.16;4922272;29;20279;-75
2023/10/02 05:08:20;;;;;;;11.02;5.68;;;;;;;11.36;49.69;96118.13;4922459;29;20049;-75
2023/10/02 05:10:50;;;;;;;10.88;5.90;;;;;;;11.34;49.76;96109.50;4919646;29;20259;-74
2023/10/02 05:13:44;;;;;;;12.82;6.53;;;;;;;11.38;49.80;96109.97;4934254;29;20055;-74
2023/10/02 05:16:11;;;;;;;11.02;6.10;;;;;;;11.34;49.94;96112.16;4923444;29;20093;-74
2023/10/02 05:18:36;;;;;;;15.00;6.43;;;;;;;11.36;50.26;96109.31;4926990;29;20073;-75
2023/10/02 05:21:03;;;;;;;12.43;6.40;;;;;;;11.39;49.98;96115.13;4937333;29;20757;-74
2023/10/02 05:23:30;;;;;;;14.30;6.00;;;;;;;11.43;50.01;96110.31;4934566;29;20040;-74
2023/10/02 05:26:02;;;;;;;13.00;5.95;;;;;;;11.41;49.30;96114.13;4928799;28;20432;-75
2023/10/02 05:31:22;;;;;;;14.35;6.45;;;;;;;11.37;49.74;96109.16;4926894;29;20128;-75
2023/10/02 05:33:48;;;;;;;14.00;6.13;;;;;;;11.37;49.80;96109.16;4931110;29;20089;-75
2023/10/02 05:36:19;;;;;;;11.27;5.60;;;;;;;11.39;49.91;96115.13;4915822;29;20093;-77
2023/10/02 05:39:05;;;;;;;11.98;5.75;;;;;;;11.43;49.49;96110.31;4902371;29;20060;-76
2023/10/02 05:41:41;;;;;;;11.43;6.03;;;;;;;11.44;48.89;96121.78;4915394;29;20098;-76
2023/10/02 05:44:13;;;;;;;13.48;6.50;;;;;;;11.41;49.05;96122.13;4927852;29;20043;-65
2023/10/02 05:46:55;;;;;;;11.02;5.82;;;;;;;11.42;49.06;96116.63;4915480;29;20754;-65
2023/10/02 05:49:23;;;;;;;11.63;5.82;;;;;;;11.41;49.18;96117.63;4918573;29;20052;-65
2023/10/02 05:51:55;;;;;;;11.93;5.85;;;;;;;11.18;51.56;96115.69;4926993;29;20127;-65
2023/10/02 05:54:26;;;;;;;11.32;6.18;;;;;;;11.16;51.71;96124.84;4914325;29;20069;-65
2023/10/02 05:56:52;;;;;;;10.82;5.70;;;;;;;11.19;51.18;96124.53;4918761;29;20055;-65
2023/10/02 05:59:24;;;;;;;12.05;6.20;;;;;;;11.22;51.47;96124.19;4930236;29;20221;-65
2023/10/02 06:01:52;;;;;;;11.73;6.90;;;;;;;11.28;51.25;96122.69;4917212;29;20115;-65
2023/10/02 06:04:22;;;;;;;12.27;6.88;;;;;;;11.36;51.03;96120.00;4920884;29;20048;-65
2023/10/02 06:06:49;;;;;;;13.13;7.30;;;;;;;11.44;50.65;96127.97;4933965;29;20113;-64
2023/10/02 06:09:14;;;;;;;12.50;7.40;;;;;;;11.59;50.24;96124.59;4931523;29;20058;-65
2023/10/02 06:14:24;;;;;;;13.43;8.13;;;;;;;11.85;49.56;96126.13;4933723;29;20221;-64
2023/10/02 06:16:52;;;;;;;16.40;8.90;;;;;;;11.89;49.27;96130.97;4935430;29;20639;-65
2023/10/02 06:19:17;;;;;;;16.13;8.30;;;;;;;12.02;49.02;96134.91;4925986;29;20039;-65
2023/10/02 06:21:47;;;;;;;13.95;8.27;;;;;;;12.14;48.51;96130.84;4931364;29;20928;-65
2023/10/02 06:24:18;;;;;;;17.65;9.13;;;;;;;12.29;48.18;96130.13;4933249;29;20428;-65
2023/10/02 06:26:53;;;;;;;16.08;10.05;;;;;;;12.42;47.86;96125.00;4933963;29;20111;-64
2023/10/02 06:29:25;;;;;;;20.75;12.13;;;;;;;12.51;47.70;96131.13;4920995;29;20039;-64
2023/10/02 06:31:58;;;;;;;19.30;12.82;;;;;;;12.65;47.09;96118.03;4932341;29;20618;-65
2023/10/02 06:34:25;;;;;;;17.83;12.82;;;;;;;12.76;47.12;96130.13;4928789;29;20468;-65
2023/10/02 06:37:02;;;;;;;17.90;11.80;;;;;;;12.86;46.73;96135.22;4927465;29;20051;-65
2023/10/02 06:39:35;;;;;;;19.40;12.37;;;;;;;13.00;46.29;96141.66;4929207;29;20094;-64
2023/10/02 06:42:07;;;;;;;21.00;13.35;;;;;;;13.14;45.99;96140.84;4922093;29;20080;-65
2023/10/02 06:44:52;;;;;;;21.58;13.20;;;;;;;13.31;45.84;96140.69;4929862;29;20050;-65
2023/10/02 06:47:18;;;;;;;23.08;15.32;;;;;;;13.48;45.43;96140.50;4927139;29;20082;-65
2023/10/02 06:49:46;;;;;;;24.30;17.17;;;;;;;13.63;45.09;96141.34;4915185;29;20071;-65
2023/10/02 06:52:15;;;;;;;25.50;16.58;;;;;;;13.77;44.91;96136.19;4925786;29;20027;-65
2023/10/02 06:54:44;;;;;;;23.63;16.15;;;;;;;13.91;44.76;96140.72;4928446;29;20798;-65
2023/10/02 06:57:13;;;;;;;23.08;15.57;;;;;;;14.05;44.54;96127.50;4920813;29;20035;-65
2023/10/02 06:59:39;;;;;;;21.73;14.60;;;;;;;14.13;44.35;96130.06;4924872;29;20138;-65
2023/10/02 07:02:06;;;;;;;20.83;15.07;;;;;;;14.24;44.14;96130.59;4929499;29;20118;-65
2023/10/02 07:04:35;;;;;;;23.65;15.55;;;;;;;14.39;43.60;96134.06;4928577;29;20672;-64
2023/10/02 07:07:06;;;;;;;23.33;15.30;;;;;;;14.57;43.68;96140.81;4930084;29;20048;-65
2023/10/02 07:09:35;;;;;;;22.65;13.63;;;;;;;14.76;43.27;96144.78;4923691;29;20253;-65
2023/10/02 07:12:13;;;;;;;22.70;14.65;;;;;;;14.98;42.98;96137.53;4922428;29;20045;-65
2023/10/02 07:14:39;;;;;;;22.60;14.57;;;;;;;15.24;42.50;96149.47;4921500;29;20154;-65
2023/10/02 07:17:17;;;;;;;23.92;14.10;;;;;;;15.46;42.12;96141.38;4925332;29;20164;-65
2023/10/02 07:19:51;;;;;;;20.65;12.85;;;;;;;15.73;42.28;96148.78;4924228;29;20504;-65
2023/10/02 07:22:18;;;;;;;22.98;12.88;;;;;;;15.93;41.38;96140.84;4927411;29;20627;-65
2023/10/02 07:24:46;;;;;;;21.33;12.35;;;;;;;16.15;41.44;96146.09;4932166;29;20035;-65
2023/10/02 07:27:24;;;;;;;20.58;12.25;;;;;;;16.36;40.90;96147.03;4932420;29;20039;-65
2023/10/02 07:29:53;;;;;;;17.95;11.85;;;;;;;16.60;40.92;96142.13;4922348;29;20114;-65
2023/10/02 07:32:21;;;;;;;18.38;11.13;;;;;;;16.84;40.54;96138.03;4915882;29;20557;-65
2023/10/02 07:34:47;;;;;;;17.60;11.63;;;;;;;17.05;40.13;96146.91;4928774;29;20672;-65
2023/10/02 07:37:15;;;;;;;19.42;11.05;;;;;;;17.31;40.84;96147.16;4931507;29;20170;-65
2023/10/02 07:39:42;;;;;;;21.58;12.98;;;;;;;17.49;39.42;96150.03;4928220;29;20118;-65
2023/10/02 07:42:10;;;;;;;22.08;13.00;;;;;;;17.69;38.82;96146.47;4912978;29;20755;-65
2023/10/02 07:44:38;;;;;;;21.60;13.30;;;;;;;17.82;38.80;96152.84;4910695;29;20097;-64
2023/10/02 07:47:10;;;;;;;20.48;11.70;;;;;;;18.08;40.01;96148.47;4910847;29;20737;-66
2023/10/02 07:49:39;;;;;;;19.35;10.65;;;;;;;18.28;39.91;96146.50;4909429;29;20032;-65
2023/10/02 07:52:07;;;;;;;17.20;9.85;;;;;;;18.37;39.68;96143.56;4910906;29;20785;-65
2023/10/02 07:54:45;;;;;;;19.88;11.15;;;;;;;18.49;38.47;96147.22;4910243;29;20036;-64
2023/10/02 07:57:13;;;;;;;19.52;11.38;;;;;;;18.62;38.52;96148.19;4908708;29;20035;-65
2023/10/02 07:59:40;;;;;;;20.83;13.38;;;;;;;18.60;38.03;96147.59;4909017;29;20035;-65
2023/10/02 08:02:21;;;;;;;;;;;;;;;18.36;38.59;96150.78;4908268;29;20039;-65
2023/10/02 08:04:48;;;;;;;18.58;10.60;;;;;;;18.59;38.86;96146.78;4916342;29;19934;-65
2023/10/02 08:07:13;;;;;;;23.20;12.95;;;;;;;18.82;37.63;96143.53;4918447;29;20824;-77
2023/10/02 08:09:40;;;;;;;20.95;12.50;;;;;;;19.00;36.97;96152.72;4908227;29;20043;-76
2023/10/02 08:12:08;;;;;;;18.70;9.60;;;;;;;19.25;37.89;96149.22;4925547;29;20082;-78
2023/10/02 08:14:42;;;;;;;17.13;9.63;;;;;;;19.24;37.84;96144.84;4904623;29;20138;-72
2023/10/02 08:17:27;;;;;;;17.80;9.32;;;;;;;18.21;39.50;96145.69;4894472;29;20027;-70
2023/10/02 08:22:44;;;;;;;24.65;14.65;;;;;;;18.60;39.15;96147.59;4909226;29;20050;-72
2023/10/02 08:25:16;;;;;;;18.38;11.25;;;;;;;18.73;37.99;96142.13;4909932;29;20560;-72
2023/10/02 08:27:45;;;;;;;16.92;10.25;;;;;;;18.73;38.08;96146.69;4909883;29;20712;-71
2023/10/02 08:33:07;;;;;;;18.83;10.15;;;;;;;19.28;37.78;96147.97;4909937;29;20046;-71
2023/10/02 08:35:33;;;;;;;19.55;10.38;;;;;;;18.37;38.45;96155.16;4909783;29;20036;-72
2023/10/02 08:37:59;;;;;;;18.50;10.43;;;;;;;18.89;38.58;96148.03;4912844;29;20108;-72
2023/10/02 08:40:25;;;;;;;25.25;15.68;;;;;;;19.25;37.41;96149.22;4920914;29;20031;-70
2023/10/02 08:42:52;;;;;;;29.00;18.20;;;;;;;19.53;37.03;96147.94;4914275;29;20059;-71
2023/10/02 08:45:20;;;;;;;18.05;10.38;;;;;;;18.99;37.89;96148.38;4911026;29;20044;-72
2023/10/02 08:47:49;;;;;;;19.70;10.82;;;;;;;19.70;36.60;96150.06;4891750;29;20043;-72
2023/10/02 08:50:16;;;;;;;29.00;20.23;;;;;;;19.74;35.97;96142.34;4903592;29;20039;-73
2023/10/02 08:52:48;;;;;;;22.70;15.27;;;;;;;20.26;35.89;96150.06;4908909;29;20051;-72
2023/10/02 08:58:19;;;;;;;18.73;10.90;;;;;;;19.99;36.13;96134.19;4905983;29;20039;-71
2023/10/02 09:04:11;;;;;;;23.27;15.35;;;;;;;20.81;35.56;96137.50;4910090;29;20392;-71
2023/10/02 09:06:36;;;;;;;18.80;9.05;;;;;;;21.09;34.94;96130.59;4911534;28;20167;-71
2023/10/02 09:09:26;;;;;;;27.80;18.05;;;;;;;21.39;34.41;96128.88;4931812;29;20094;-72
2023/10/02 09:11:57;;;;;;;18.43;10.87;;;;;;;21.37;33.83;96133.69;4916690;29;20490;-72
2023/10/02 09:17:19;;;;;;;27.17;18.17;;;;;;;21.69;33.09;96132.50;4913442;29;20038;-72
2023/10/02 09:19:53;;;;;;;18.80;10.18;;;;;;;20.96;34.39;96133.50;4910196;29;20047;-72
2023/10/02 09:22:20;;;;;;;17.70;8.70;;;;;;;21.12;35.43;96127.41;4914039;29;20126;-71
2023/10/02 09:24:55;;;;;;;19.13;11.13;;;;;;;21.41;33.55;96129.47;4917458;29;20040;-72
2023/10/02 09:27:30;;;;;;;21.80;12.38;;;;;;;21.74;33.50;96135.31;4908187;29;20042;-71
2023/10/02 09:30:16;;;;;;;19.88;13.27;;;;;;;21.92;32.57;96125.44;4931395;29;20042;-71
2023/10/02 09:32:49;;;;;;;19.05;9.68;;;;;;;22.12;33.29;96128.56;4922061;29;20032;-72
2023/10/02 09:35:50;;;;;;;19.95;13.27;;;;;;;22.09;32.71;96123.63;4912868;29;20040;-70
2023/10/02 09:38:16;;;;;;;16.98;10.55;;;;;;;22.20;32.34;96121.94;4914334;29;20170;-72
2023/10/02 09:43:30;;;;;;;19.15;10.90;;;;;;;21.08;34.23;96131.63;4910144;29;20444;-72
2023/10/02 09:45:59;;;;;;;18.17;12.05;;;;;;;21.77;33.62;96121.31;4898568;29;20521;-72
2023/10/02 09:51:20;;;;;;;17.27;9.82;;;;;;;22.20;30.99;96118.41;4911655;29;20040;-71
2023/10/02 09:54:04;;;;;;;17.65;9.48;;;;;;;21.92;32.78;96120.84;4912889;29;20047;-71
2023/10/02 09:57:13;;;;;;;19.73;10.32;;;;;;;20.96;33.32;96122.69;4911064;29;20040;-72
2023/10/02 09:59:46;;;;;;;15.73;9.20;;;;;;;21.28;33.88;96122.38;4894538;29;20107;-71
2023/10/02 10:10:49;;;;;;;18.25;9.30;;;;;;;22.23;31.49;96121.44;4911748;29;20040;-72
2023/10/02 10:13:37;;;;;;;18.75;9.85;;;;;;;21.39;32.91;96107.22;4913662;29;20044;-72
2023/10/02 10:16:20;;;;;;;18.20;9.68;;;;;;;20.63;33.99;96111.31;4931985;29;20573;-73
2023/10/02 10:19:26;;;;;;;18.65;9.65;;;;;;;21.50;32.48;96105.56;4928890;29;20043;-72
2023/10/02 10:21:56;;;;;;;20.17;10.70;;;;;;;21.73;32.54;96112.00;4937252;29;20047;-73
2023/10/02 10:27:40;;;;;;;18.50;10.27;;;;;;;22.19;31.68;96111.34;4869293;29;20079;-72
2023/10/02 10:35:48;;;;;;;18.85;9.98;;;;;;;22.68;32.49;96107.38;4913692;29;20079;-73
2023/10/02 10:38:26;;;;;;;17.98;9.50;;;;;;;23.41;30.39;96106.66;4912940;29;20106;-73
2023/10/02 10:41:01;;;;;;;21.33;11.52;;;;;;;23.00;30.62;96099.50;4915004;29;20690;-72
2023/10/02 10:43:43;;;;;;;17.25;9.93;;;;;;;20.09;35.44;96114.75;4914322;29;21101;-74
2023/10/02 10:46:17;;;;;;;20.85;11.35;;;;;;;21.91;32.92;96105.63;4912990;29;21028;-75
2023/10/02 10:49:08;;;;;;;17.00;9.35;;;;;;;22.12;31.91;96106.03;4897477;29;20032;-73
2023/10/02 10:51:34;;;;;;;20.98;11.32;;;;;;;21.36;33.35;96103.09;4915663;29;20404;-73
2023/10/02 10:54:12;;;;;;;20.25;11.00;;;;;;;22.31;32.66;96104.00;4913139;29;20114;-74
2023/10/02 10:56:43;;;;;;;16.42;9.38;;;;;;;23.27;31.19;96098.88;4910495;29;20058;-71
2023/10/02 10:59:12;;;;;;;19.65;10.73;;;;;;;23.30;30.39;96100.25;4917715;29;20039;-72
2023/10/02 11:02:09;;;;;;;17.80;9.82;;;;;;;23.40;30.11;96097.69;4929246;29;20035;-75
2023/10/02 11:04:34;;;;;;;17.43;10.37;;;;;;;23.85;30.51;96100.50;4918156;29;20075;-72
2023/10/02 11:06:59;;;;;;;17.80;10.82;;;;;;;24.07;30.26;96099.66;4931646;29;20109;-71
2023/10/02 11:09:25;;;;;;;16.88;10.07;;;;;;;24.69;29.20;96103.06;4930911;29;20035;-73
2023/10/02 11:11:53;;;;;;;16.57;9.30;;;;;;;25.20;28.02;96104.59;4923145;29;20685;-71
2023/10/02 11:14:22;;;;;;;15.88;9.35;;;;;;;25.23;27.91;96097.81;4928504;29;20329;-73
2023/10/02 11:16:51;;;;;;;16.13;9.30;;;;;;;24.88;28.31;96094.50;4931027;29;20857;-73
2023/10/02 11:19:34;;;;;;;18.20;11.10;;;;;;;23.85;29.76;96099.66;4927818;29;20036;-72
2023/10/02 11:22:14;;;;;;;15.55;9.25;;;;;;;23.61;30.50;96097.13;4925460;29;20056;-71
2023/10/02 11:24:55;;;;;;;16.15;9.40;;;;;;;23.97;29.81;96094.09;4927164;29;20062;-72
2023/10/02 11:27:21;;;;;;;15.98;9.35;;;;;;;24.69;28.68;96089.47;4926824;29;20154;-73
2023/10/02 11:30:03;;;;;;;17.57;10.17;;;;;;;22.68;31.92;96100.06;4928912;28;20627;-71
2023/10/02 11:32:54;;;;;;;16.25;9.50;;;;;;;24.04;29.69;96083.88;4929992;29;20543;-71
2023/10/02 11:35:28;;;;;;;16.02;8.55;;;;;;;23.83;29.81;96083.63;4930607;29;20788;-71
2023/10/02 11:37:54;;;;;;;15.20;9.80;;;;;;;24.12;29.45;96075.25;4933050;29;20499;-71
2023/10/02 11:40:24;;;;;;;15.23;9.50;;;;;;;23.84;30.06;96077.09;4924983;29;20057;-72
2023/10/02 11:42:50;;;;;;;16.10;9.40;;;;;;;23.72;30.62;96074.47;4915691;29;20050;-74
2023/10/02 11:45:15;;;;;;;16.48;9.35;;;;;;;24.30;29.85;96073.28;4914876;29;20553;-74
2023/10/02 11:47:40;;;;;;;15.02;10.02;;;;;;;24.81;28.54;96064.78;4917797;29;20121;-71
2023/10/02 11:50:06;;;;;;;15.95;9.20;;;;;;;24.96;28.43;96063.28;4913825;29;20039;-72
2023/10/02 11:52:32;;;;;;;18.50;9.55;;;;;;;24.43;29.45;96061.16;4924752;29;20416;-73
2023/10/02 11:54:58;;;;;;;14.43;9.80;;;;;;;24.99;27.83;96059.22;4923095;29;20043;-71
2023/10/02 11:57:24;;;;;;;19.48;9.80;;;;;;;24.99;29.02;96054.63;4909530;29;20388;-72
2023/10/02 11:59:50;;;;;;;15.83;9.40;;;;;;;25.02;28.62;96048.63;4912793;29;20043;-71
2023/10/02 12:02:18;;;;;;;15.93;9.20;;;;;;;25.50;29.02;96055.22;4911291;29;20040;-71
2023/10/02 12:04:44;;;;;;;17.58;9.27;;;;;;;25.53;27.94;96058.22;4910939;29;20059;-71
2023/10/02 12:07:15;;;;;;;18.43;9.27;;;;;;;24.16;30.15;96054.63;4894967;29;20048;-71
2023/10/02 12:09:41;;;;;;;18.95;13.52;;;;;;;24.76;28.61;96050.31;4911642;29;20764;-73
2023/10/02 12:12:06;;;;;;;15.37;9.47;;;;;;;25.37;28.59;96046.41;4914369;29;20135;-71
2023/10/02 12:14:32;;;;;;;17.30;9.77;;;;;;;25.18;28.71;96046.84;4924136;29;20118;-73
2023/10/02 12:16:58;;;;;;;14.93;9.30;;;;;;;24.83;28.43;96046.28;4928157;29;20083;-72
2023/10/02 12:19:24;;;;;;;17.60;9.77;;;;;;;24.91;28.65;96036.84;4916806;29;20040;-71
2023/10/02 12:21:51;;;;;;;15.38;8.90;;;;;;;25.28;27.91;96037.06;4908943;29;20696;-72
2023/10/02 12:24:17;;;;;;;18.13;11.65;;;;;;;25.22;28.68;96030.81;4910780;29;20114;-71
2023/10/02 12:26:43;;;;;;;24.47;18.33;;;;;;;24.52;29.57;96026.16;4914515;29;20549;-73
2023/10/02 12:29:10;;;;;;;14.75;8.60;;;;;;;26.20;28.03;96029.56;4921180;29;20170;-70
2023/10/02 12:31:36;;;;;;;15.85;9.60;;;;;;;26.75;26.76;96021.75;4923402;29;20040;-69
2023/10/02 12:34:02;;;;;;;19.02;12.70;;;;;;;27.38;26.48;96021.69;4909444;29;20043;-71
2023/10/02 12:36:28;;;;;;;17.17;10.23;;;;;;;28.21;25.07;96024.09;4922607;29;20560;-70
2023/10/02 12:38:53;;;;;;;25.50;17.60;;;;;;;29.01;23.54;96007.59;4925916;29;20051;-69
2023/10/02 12:41:24;;;;;;;16.53;9.47;;;;;;;30.35;22.03;96011.00;4900447;29;20142;-71
2023/10/02 12:43:56;;;;;;;25.02;15.40;;;;;;;31.42;20.72;96005.88;4920659;29;20058;-70
2023/10/02 12:46:31;;;;;;;19.73;12.95;;;;;;;33.44;19.33;95996.88;4933223;29;20043;-69